createdAt,value
2017-09-29T00:02:01.220Z,17.97
2017-09-29T00:04:27.867Z,18.83
2017-09-29T00:06:54.499Z,22.00
2017-09-29T00:09:21.135Z,20.83
2017-09-29T00:11:47.768Z,22.57
2017-09-29T00:14:14.399Z,24.00
2017-09-29T00:16:41.072Z,25.57
2017-09-29T00:19:07.724Z,29.50
2017-09-29T00:21:34.348Z,28.07
2017-09-29T00:24:00.986Z,29.33
2017-09-29T00:26:27.632Z,23.90
2017-09-29T00:28:54.268Z,26.13
2017-09-29T00:31:20.919Z,29.43
2017-09-29T00:33:47.540Z,26.20
2017-09-29T00:36:14.163Z,27.90
2017-09-29T00:38:40.816Z,34.97
2017-09-29T00:41:07.431Z,33.87
2017-09-29T00:43:34.061Z,32.47
2017-09-29T00:46:00.702Z,35.10
2017-09-29T00:48:27.319Z,32.80
2017-09-29T00:50:53.997Z,33.33
2017-09-29T00:53:20.612Z,31.43
2017-09-29T00:55:47.242Z,34.23
2017-09-29T00:58:13.898Z,33.23
2017-09-29T01:00:40.524Z,31.60
2017-09-29T01:03:07.156Z,30.83
2017-09-29T01:05:33.787Z,34.93
2017-09-29T01:08:00.435Z,32.53
2017-09-29T01:10:27.071Z,34.03
2017-09-29T01:12:53.698Z,34.83
2017-09-29T01:15:20.334Z,33.43
2017-09-29T01:17:46.967Z,35.80
2017-09-29T01:20:13.585Z,37.07
2017-09-29T01:22:40.222Z,31.60
2017-09-29T01:25:06.851Z,32.77
2017-09-29T01:27:33.466Z,34.53
2017-09-29T01:30:00.117Z,39.03
2017-09-29T01:32:26.751Z,38.03
2017-09-29T01:34:53.392Z,49.00
2017-09-29T01:37:20.001Z,47.53
2017-09-29T01:39:46.642Z,42.87
2017-09-29T01:42:13.260Z,47.50
2017-09-29T01:44:39.876Z,41.73
2017-09-29T01:47:06.519Z,43.30
2017-09-29T01:49:33.139Z,46.93
2017-09-29T01:51:59.783Z,41.47
2017-09-29T01:54:26.468Z,41.30
2017-09-29T01:56:53.107Z,39.70
2017-09-29T01:59:19.755Z,37.03
2017-09-29T02:01:46.375Z,41.87
2017-09-29T02:04:13.001Z,43.80
2017-09-29T02:06:39.638Z,40.60
2017-09-29T02:09:06.263Z,35.00
2017-09-29T02:11:32.883Z,33.70
2017-09-29T02:13:59.515Z,34.03
2017-09-29T02:16:26.171Z,32.57
2017-09-29T02:18:52.808Z,26.43
2017-09-29T02:21:19.426Z,34.30
2017-09-29T02:23:46.055Z,34.03
2017-09-29T02:26:12.704Z,30.40
2017-09-29T02:28:39.376Z,29.30
2017-09-29T02:31:05.984Z,29.50
2017-09-29T02:33:32.643Z,29.23
2017-09-29T02:35:59.259Z,33.10
2017-09-29T02:38:25.939Z,28.23
2017-09-29T02:40:52.582Z,28.07
2017-09-29T02:43:19.206Z,31.47
2017-09-29T02:45:46.253Z,32.10
2017-09-29T02:48:12.855Z,34.60
2017-09-29T02:50:39.507Z,31.17
2017-09-29T02:53:06.132Z,31.63
2017-09-29T02:55:32.790Z,29.63
2017-09-29T02:58:00.514Z,32.83
2017-09-29T03:00:27.355Z,34.00
2017-09-29T03:02:54.191Z,39.83
2017-09-29T03:05:21.035Z,30.10
2017-09-29T03:07:47.680Z,32.90
2017-09-29T03:10:14.344Z,32.17
2017-09-29T03:12:41.051Z,32.50
2017-09-29T03:15:07.670Z,32.57
2017-09-29T03:17:34.316Z,31.63
2017-09-29T03:20:00.923Z,31.90
2017-09-29T03:22:27.551Z,42.77
2017-09-29T03:24:54.203Z,43.67
2017-09-29T03:27:20.814Z,34.80
2017-09-29T03:29:47.424Z,37.50
2017-09-29T03:32:14.076Z,32.30
2017-09-29T03:34:40.707Z,34.57
2017-09-29T03:37:07.348Z,42.63
2017-09-29T03:39:33.999Z,37.20
2017-09-29T03:42:00.638Z,40.13
2017-09-29T03:44:27.279Z,38.20
2017-09-29T03:46:53.893Z,35.07
2017-09-29T03:49:20.522Z,33.60
2017-09-29T03:51:48.286Z,29.77
2017-09-29T03:54:15.250Z,36.23
2017-09-29T03:56:42.970Z,35.00
2017-09-29T03:59:12.532Z,37.93
2017-09-29T04:01:39.547Z,39.10
2017-09-29T04:04:06.419Z,32.90
2017-09-29T04:06:33.053Z,32.17
2017-09-29T04:08:59.699Z,36.57
2017-09-29T04:11:26.329Z,28.47
2017-09-29T04:13:52.968Z,42.13
2017-09-29T04:16:19.610Z,28.43
2017-09-29T04:18:46.565Z,29.47
2017-09-29T04:21:13.581Z,30.37
2017-09-29T04:23:40.219Z,42.87
2017-09-29T04:26:06.844Z,35.90
2017-09-29T04:28:33.484Z,32.47
2017-09-29T04:31:00.130Z,35.10
2017-09-29T04:33:26.762Z,38.30
2017-09-29T04:35:53.404Z,38.53
2017-09-29T04:38:20.040Z,31.90
2017-09-29T04:40:46.687Z,31.50
2017-09-29T04:43:13.308Z,35.43
2017-09-29T04:45:39.962Z,34.17
2017-09-29T04:48:06.608Z,33.40
2017-09-29T04:50:33.267Z,33.00
2017-09-29T04:52:59.896Z,35.60
2017-09-29T04:55:26.525Z,32.07
2017-09-29T04:57:53.163Z,29.57
2017-09-29T05:00:19.832Z,32.73
2017-09-29T05:02:46.451Z,29.20
2017-09-29T05:05:13.067Z,30.43
2017-09-29T05:07:39.706Z,31.30
2017-09-29T05:10:06.331Z,31.70
2017-09-29T05:12:32.967Z,29.60
2017-09-29T05:14:59.591Z,36.77
2017-09-29T05:17:26.242Z,32.43
2017-09-29T05:19:52.864Z,33.30
2017-09-29T05:22:19.500Z,34.53
2017-09-29T05:24:46.436Z,37.37
2017-09-29T05:27:13.066Z,33.63
2017-09-29T05:29:39.722Z,35.63
2017-09-29T05:32:06.367Z,38.37
2017-09-29T05:34:32.966Z,29.53
2017-09-29T05:36:59.616Z,32.27
2017-09-29T05:39:26.257Z,31.43
2017-09-29T05:41:52.888Z,30.53
2017-09-29T05:44:19.533Z,30.40
2017-09-29T05:46:46.166Z,31.60
2017-09-29T05:49:13.176Z,31.97
2017-09-29T05:51:39.811Z,31.43
2017-09-29T05:54:06.435Z,27.77
2017-09-29T05:56:33.071Z,26.17
2017-09-29T05:58:59.702Z,41.97
2017-09-29T06:01:26.343Z,38.90
2017-09-29T06:03:52.963Z,34.13
2017-09-29T06:06:19.581Z,39.20
2017-09-29T06:08:46.244Z,34.60
2017-09-29T06:11:12.862Z,39.70
2017-09-29T06:13:39.490Z,73.37
2017-09-29T06:16:06.125Z,34.53
2017-09-29T06:18:32.747Z,34.53
2017-09-29T06:20:59.382Z,38.80
2017-09-29T06:23:26.019Z,34.23
2017-09-29T06:25:52.651Z,37.03
2017-09-29T06:28:19.274Z,30.83
2017-09-29T06:30:45.928Z,30.63
2017-09-29T06:33:12.566Z,33.30
2017-09-29T06:35:39.215Z,39.63
2017-09-29T06:38:05.838Z,31.67
2017-09-29T06:40:32.459Z,36.37
2017-09-29T06:42:59.112Z,36.83
2017-09-29T06:45:25.860Z,36.33
2017-09-29T06:47:52.463Z,36.07
2017-09-29T06:50:19.089Z,36.43
2017-09-29T06:52:45.714Z,36.13
2017-09-29T06:55:12.351Z,38.93
2017-09-29T06:57:38.981Z,40.97
2017-09-29T07:00:05.630Z,31.87
2017-09-29T07:02:32.277Z,35.43
2017-09-29T07:04:58.940Z,36.10
2017-09-29T07:07:25.582Z,37.00
2017-09-29T07:09:52.218Z,32.40
2017-09-29T07:12:18.838Z,38.80
2017-09-29T07:14:45.511Z,33.90
2017-09-29T07:17:12.145Z,32.00
2017-09-29T07:19:38.781Z,36.40
2017-09-29T07:22:05.430Z,35.43
2017-09-29T07:24:33.687Z,37.63
2017-09-29T07:27:01.520Z,36.30
2017-09-29T07:29:28.779Z,39.90
2017-09-29T07:31:55.903Z,42.63
2017-09-29T07:34:22.555Z,41.77
2017-09-29T07:36:49.192Z,35.43
2017-09-29T07:39:15.833Z,42.70
2017-09-29T07:41:42.470Z,32.40
2017-09-29T07:44:09.106Z,35.20
2017-09-29T07:46:35.752Z,35.43
2017-09-29T07:49:02.388Z,36.43
2017-09-29T07:51:29.013Z,37.00
2017-09-29T07:53:55.635Z,36.87
2017-09-29T07:56:22.250Z,35.63
2017-09-29T07:58:48.871Z,45.27
2017-09-29T08:01:15.523Z,31.93
2017-09-29T08:03:42.171Z,44.33
2017-09-29T08:06:08.870Z,30.37
2017-09-29T08:08:35.495Z,29.17
2017-09-29T08:11:02.135Z,30.00
2017-09-29T08:13:28.760Z,30.13
2017-09-29T08:15:55.390Z,39.17
2017-09-29T08:18:22.015Z,31.40
2017-09-29T08:20:48.647Z,33.80
2017-09-29T08:23:15.291Z,29.10
2017-09-29T08:25:41.915Z,34.07
2017-09-29T08:28:08.555Z,39.90
2017-09-29T08:30:35.301Z,33.00
2017-09-29T08:33:02.013Z,33.20
2017-09-29T08:35:28.643Z,26.37
2017-09-29T08:37:55.259Z,33.47
2017-09-29T08:40:21.908Z,32.70
2017-09-29T08:42:48.536Z,27.70
2017-09-29T08:45:15.173Z,29.30
2017-09-29T08:47:41.787Z,31.80
2017-09-29T08:50:08.431Z,28.57
2017-09-29T08:52:35.059Z,26.17
2017-09-29T08:55:01.710Z,28.50
2017-09-29T08:57:28.339Z,25.30
2017-09-29T08:59:54.983Z,31.03
2017-09-29T09:02:21.603Z,21.90
2017-09-29T09:04:48.267Z,25.97
2017-09-29T09:07:14.882Z,23.07
2017-09-29T09:09:41.515Z,24.90
2017-09-29T09:12:08.719Z,21.77
2017-09-29T09:14:35.391Z,22.43
2017-09-29T09:17:02.024Z,19.10
2017-09-29T09:19:28.640Z,21.13
2017-09-29T09:21:55.288Z,16.30
2017-09-29T09:24:21.936Z,17.63
2017-09-29T09:26:48.550Z,19.40
2017-09-29T09:29:15.178Z,15.50
2017-09-29T09:31:41.795Z,16.93
2017-09-29T09:34:08.435Z,17.90
2017-09-29T09:36:35.077Z,16.00
2017-09-29T09:39:01.710Z,15.10
2017-09-29T09:41:28.356Z,15.57
2017-09-29T09:43:55.289Z,16.63
2017-09-29T09:46:21.915Z,14.60
2017-09-29T09:48:48.560Z,17.47
2017-09-29T09:51:15.179Z,19.50
2017-09-29T09:53:41.808Z,15.20
2017-09-29T09:56:08.441Z,12.57
2017-09-29T09:58:35.082Z,13.00
2017-09-29T10:01:01.713Z,10.67
2017-09-29T10:03:28.331Z,11.43
2017-09-29T10:05:55.004Z,16.50
2017-09-29T10:08:21.651Z,10.03
2017-09-29T10:10:48.271Z,9.70
2017-09-29T10:13:14.878Z,14.77
2017-09-29T10:15:41.523Z,11.53
2017-09-29T10:18:08.137Z,16.13
2017-09-29T10:20:34.778Z,14.03
2017-09-29T10:23:01.404Z,13.50
2017-09-29T10:25:28.047Z,14.30
2017-09-29T10:27:54.719Z,9.03
2017-09-29T10:30:21.327Z,9.67
2017-09-29T10:32:47.987Z,12.27
2017-09-29T10:35:14.595Z,8.13
2017-09-29T10:37:41.239Z,10.67
2017-09-29T10:40:07.881Z,14.23
2017-09-29T10:42:34.528Z,18.90
2017-09-29T10:45:01.147Z,10.63
2017-09-29T10:47:27.788Z,15.33
2017-09-29T10:49:54.398Z,17.70
2017-09-29T10:52:21.038Z,10.87
2017-09-29T10:54:47.674Z,11.23
2017-09-29T10:57:14.298Z,11.63
2017-09-29T10:59:40.910Z,11.93
2017-09-29T11:02:07.556Z,9.23
2017-09-29T11:04:34.183Z,14.73
2017-09-29T11:07:00.805Z,11.03
2017-09-29T11:09:27.442Z,14.50
2017-09-29T11:11:54.086Z,12.23
2017-09-29T11:14:20.692Z,18.60
2017-09-29T11:16:47.339Z,10.30
2017-09-29T11:19:13.975Z,9.67
2017-09-29T11:21:40.608Z,11.37
2017-09-29T11:24:07.215Z,8.63
2017-09-29T11:26:33.847Z,7.07
2017-09-29T11:29:00.470Z,6.73
2017-09-29T11:31:27.092Z,5.73
2017-09-29T11:33:53.726Z,8.50
2017-09-29T11:36:20.341Z,7.43
2017-09-29T11:38:46.978Z,8.07
2017-09-29T11:41:13.613Z,9.00
2017-09-29T11:43:40.227Z,13.63
2017-09-29T11:46:06.872Z,6.00
2017-09-29T11:48:33.511Z,12.73
2017-09-29T11:51:00.121Z,9.30
2017-09-29T11:53:26.767Z,5.23
2017-09-29T11:55:53.402Z,7.73
2017-09-29T11:58:20.062Z,11.00
2017-09-29T12:00:46.676Z,6.50
2017-09-29T12:03:13.298Z,7.33
2017-09-29T12:05:39.920Z,6.70
2017-09-29T12:08:06.548Z,9.23
2017-09-29T12:10:33.186Z,6.43
2017-09-29T12:12:59.788Z,5.20
2017-09-29T12:15:26.405Z,4.87
2017-09-29T12:17:53.084Z,8.20
2017-09-29T12:20:19.690Z,6.57
2017-09-29T12:22:46.329Z,8.33
2017-09-29T12:25:12.975Z,5.93
2017-09-29T12:27:39.595Z,6.23
2017-09-29T12:30:06.231Z,5.53
2017-09-29T12:32:32.839Z,8.93
2017-09-29T12:34:59.457Z,5.00
2017-09-29T12:37:26.477Z,6.67
2017-09-29T12:39:53.122Z,8.77
2017-09-29T12:42:19.779Z,4.87
2017-09-29T12:44:46.394Z,6.43
2017-09-29T12:47:13.019Z,4.33
2017-09-29T12:49:39.642Z,6.77
2017-09-29T12:52:06.289Z,5.87
2017-09-29T12:54:32.906Z,5.93
2017-09-29T12:56:59.530Z,4.70
2017-09-29T12:59:26.177Z,6.13
2017-09-29T13:01:52.779Z,4.87
2017-09-29T13:04:19.395Z,4.20
2017-09-29T13:06:46.023Z,5.03
2017-09-29T13:09:12.671Z,4.73
2017-09-29T13:11:39.309Z,5.80
2017-09-29T13:14:05.908Z,3.80
2017-09-29T13:16:32.551Z,5.77
2017-09-29T13:18:59.178Z,7.03
2017-09-29T13:21:25.823Z,5.53
2017-09-29T13:23:52.438Z,5.10
2017-09-29T13:26:19.092Z,12.13
2017-09-29T13:28:45.703Z,5.60
2017-09-29T13:31:12.358Z,4.60
2017-09-29T13:33:38.991Z,4.37
2017-09-29T13:36:05.604Z,4.20
2017-09-29T13:38:32.246Z,4.80
2017-09-29T13:40:58.891Z,7.90
2017-09-29T13:43:25.556Z,5.57
2017-09-29T13:45:52.270Z,6.00
2017-09-29T13:48:18.927Z,3.67
2017-09-29T13:50:45.611Z,7.40
2017-09-29T13:53:12.235Z,4.73
2017-09-29T13:55:38.866Z,4.33
2017-09-29T13:58:05.491Z,13.13
2017-09-29T14:00:32.136Z,5.90
2017-09-29T14:02:58.767Z,4.70
2017-09-29T14:05:25.404Z,3.20
2017-09-29T14:07:52.410Z,4.37
2017-09-29T14:10:19.054Z,6.70
2017-09-29T14:12:45.665Z,4.07
2017-09-29T14:15:12.351Z,6.43
2017-09-29T14:17:38.968Z,3.87
2017-09-29T14:20:05.580Z,3.93
2017-09-29T14:22:32.236Z,3.20
2017-09-29T14:24:58.851Z,2.73
2017-09-29T14:27:25.507Z,5.13
2017-09-29T14:29:52.138Z,2.50
2017-09-29T14:32:19.052Z,3.07
2017-09-29T14:34:45.665Z,3.40
2017-09-29T14:37:12.276Z,3.97
2017-09-29T14:39:38.899Z,2.90
2017-09-29T14:42:05.507Z,3.93
2017-09-29T14:44:32.190Z,6.47
2017-09-29T14:46:58.818Z,4.67
2017-09-29T14:49:25.432Z,4.00
2017-09-29T14:51:52.068Z,4.10
2017-09-29T14:54:18.706Z,5.07
2017-09-29T14:56:45.345Z,2.80
2017-09-29T14:59:12.015Z,4.87
2017-09-29T15:01:38.615Z,4.93
2017-09-29T15:04:05.238Z,7.57
2017-09-29T15:06:31.878Z,6.60
2017-09-29T15:08:58.517Z,3.10
2017-09-29T15:11:25.154Z,3.67
2017-09-29T15:13:51.788Z,6.70
2017-09-29T15:16:18.451Z,3.20
2017-09-29T15:18:45.082Z,4.20
2017-09-29T15:21:11.737Z,3.13
2017-09-29T15:23:39.257Z,4.07
2017-09-29T15:26:05.877Z,5.90
2017-09-29T15:28:32.499Z,10.17
2017-09-29T15:30:59.150Z,3.00
2017-09-29T15:33:25.807Z,3.50
2017-09-29T15:35:52.427Z,5.33
2017-09-29T15:38:19.060Z,4.97
2017-09-29T15:40:45.678Z,3.30
2017-09-29T15:43:12.306Z,6.33
2017-09-29T15:45:38.945Z,6.20
2017-09-29T15:48:05.569Z,10.53
2017-09-29T15:50:32.206Z,5.13
2017-09-29T15:52:58.849Z,5.57
2017-09-29T15:55:25.489Z,6.60
2017-09-29T15:57:52.115Z,4.20
2017-09-29T16:00:18.748Z,4.43
2017-09-29T16:02:45.386Z,5.30
2017-09-29T16:05:12.044Z,5.33
2017-09-29T16:07:38.684Z,5.30
2017-09-29T16:10:05.327Z,6.90
2017-09-29T16:12:31.944Z,4.40
2017-09-29T16:14:58.589Z,6.30
2017-09-29T16:17:25.216Z,4.73
2017-09-29T16:19:51.823Z,3.83
2017-09-29T16:22:18.436Z,7.73
2017-09-29T16:24:45.078Z,3.57
2017-09-29T16:27:11.699Z,7.37
2017-09-29T16:29:38.331Z,17.20
2017-09-29T16:32:04.943Z,6.87
2017-09-29T16:34:31.575Z,4.93
2017-09-29T16:36:58.199Z,6.53
2017-09-29T16:39:24.848Z,5.47
2017-09-29T16:41:51.494Z,11.60
2017-09-29T16:44:18.143Z,13.40
2017-09-29T16:46:44.767Z,4.60
2017-09-29T16:49:11.427Z,6.27
2017-09-29T16:51:38.043Z,7.83
2017-09-29T16:54:04.676Z,10.27
2017-09-29T16:56:31.323Z,8.53
2017-09-29T16:58:57.959Z,6.60
2017-09-29T17:01:24.586Z,6.40
2017-09-29T17:03:51.215Z,5.40
2017-09-29T17:06:17.860Z,7.93
2017-09-29T17:08:44.513Z,10.27
2017-09-29T17:11:11.123Z,9.30
2017-09-29T17:13:37.779Z,6.50
2017-09-29T17:16:04.392Z,6.43
2017-09-29T17:18:31.053Z,12.87
2017-09-29T17:20:57.673Z,7.10
2017-09-29T17:23:24.312Z,9.83
2017-09-29T17:25:50.948Z,4.10
2017-09-29T17:28:17.597Z,3.50
2017-09-29T17:30:44.206Z,8.90
2017-09-29T17:33:10.843Z,9.47
2017-09-29T17:35:37.488Z,6.67
2017-09-29T17:38:04.099Z,6.40
2017-09-29T17:40:30.761Z,6.80
2017-09-29T17:42:57.378Z,4.90
2017-09-29T17:45:24.025Z,4.33
2017-09-29T17:47:50.676Z,5.13
2017-09-29T17:50:17.312Z,7.97
2017-09-29T17:52:43.972Z,5.83
2017-09-29T17:55:10.594Z,5.87
2017-09-29T17:57:37.204Z,5.90
2017-09-29T18:00:03.838Z,8.03
2017-09-29T18:02:30.486Z,10.57
2017-09-29T18:04:57.119Z,8.17
2017-09-29T18:07:23.734Z,5.03
2017-09-29T18:09:50.397Z,6.73
2017-09-29T18:12:17.027Z,8.97
2017-09-29T18:14:43.666Z,10.53
2017-09-29T18:17:10.332Z,5.47
2017-09-29T18:19:37.017Z,9.13
2017-09-29T18:22:03.659Z,7.83
2017-09-29T18:24:30.320Z,6.30
2017-09-29T18:26:56.960Z,6.47
2017-09-29T18:29:23.858Z,8.50
2017-09-29T18:31:50.534Z,7.23
2017-09-29T18:34:17.467Z,9.37
2017-09-29T18:36:44.436Z,8.37
2017-09-29T18:39:12.150Z,9.10
2017-09-29T18:41:49.014Z,7.90
2017-09-29T18:44:17.467Z,8.17
2017-09-29T18:46:44.392Z,7.27
2017-09-29T18:49:11.083Z,17.33
2017-09-29T18:51:37.720Z,8.73
2017-09-29T18:54:04.353Z,8.60
2017-09-29T18:56:30.992Z,15.53
2017-09-29T18:58:57.643Z,10.37
2017-09-29T19:01:24.325Z,11.00
2017-09-29T19:03:51.250Z,12.07
2017-09-29T19:06:17.920Z,9.40
2017-09-29T19:08:44.819Z,6.97
2017-09-29T19:11:11.562Z,11.73
2017-09-29T19:13:38.243Z,13.23
2017-09-29T19:16:04.887Z,13.20
2017-09-29T19:18:31.525Z,9.00
2017-09-29T19:20:58.212Z,10.40
2017-09-29T19:23:24.884Z,12.67
2017-09-29T19:25:51.552Z,10.93
2017-09-29T19:28:18.172Z,10.23
2017-09-29T19:30:44.861Z,10.30
2017-09-29T19:33:11.499Z,9.90
2017-09-29T19:35:38.103Z,7.83
2017-09-29T19:38:04.797Z,7.03
2017-09-29T19:40:31.421Z,8.13
2017-09-29T19:42:58.328Z,9.03
2017-09-29T19:45:25.007Z,8.33
2017-09-29T19:47:51.880Z,8.13
2017-09-29T19:50:18.859Z,10.53
2017-09-29T19:52:45.816Z,10.67
2017-09-29T19:55:12.779Z,8.47
2017-09-29T19:57:39.754Z,7.87
2017-09-29T20:00:06.443Z,11.13
2017-09-29T20:02:33.349Z,8.83
2017-09-29T20:05:00.164Z,8.27
2017-09-29T20:07:26.936Z,9.50
2017-09-29T20:09:53.555Z,8.20
2017-09-29T20:12:20.205Z,7.13
2017-09-29T20:14:46.838Z,10.30
2017-09-29T20:17:13.468Z,12.93
2017-09-29T20:19:40.119Z,7.97
2017-09-29T20:22:06.767Z,9.73
2017-09-29T20:24:33.395Z,13.60
2017-09-29T20:27:00.022Z,7.57
2017-09-29T20:29:26.640Z,7.07
2017-09-29T20:31:53.270Z,8.83
2017-09-29T20:34:19.949Z,8.37
2017-09-29T20:36:46.688Z,7.83
2017-09-29T20:39:13.320Z,11.33
2017-09-29T20:41:39.955Z,10.13
2017-09-29T20:44:06.583Z,14.23
2017-09-29T20:46:33.253Z,11.33
2017-09-29T20:48:59.892Z,13.50
2017-09-29T20:51:26.519Z,7.20
2017-09-29T20:53:53.196Z,11.63
2017-09-29T20:56:19.834Z,10.90
2017-09-29T20:58:46.469Z,11.43
2017-09-29T21:01:13.138Z,10.10
2017-09-29T21:03:39.771Z,12.90
2017-09-29T21:06:06.411Z,11.93
2017-09-29T21:08:33.039Z,16.80
2017-09-29T21:10:59.676Z,12.80
2017-09-29T21:13:26.331Z,12.43
2017-09-29T21:15:52.968Z,13.87
2017-09-29T21:18:19.627Z,10.40
2017-09-29T21:20:46.231Z,10.93
2017-09-29T21:23:12.895Z,13.17
2017-09-29T21:25:39.539Z,12.20
2017-09-29T21:28:06.157Z,11.63
2017-09-29T21:30:32.798Z,17.83
2017-09-29T21:32:59.412Z,8.80
2017-09-29T21:35:26.076Z,11.10
2017-09-29T21:37:52.763Z,14.53
2017-09-29T21:40:19.384Z,12.73
2017-09-29T21:42:46.014Z,10.53
2017-09-29T21:45:12.823Z,13.17
2017-09-29T21:47:39.442Z,12.43
2017-09-29T21:50:06.089Z,15.00
2017-09-29T21:52:32.755Z,9.03
2017-09-29T21:54:59.395Z,8.03
2017-09-29T21:57:26.030Z,10.23
2017-09-29T21:59:52.694Z,10.23
2017-09-29T22:02:19.307Z,9.80
2017-09-29T22:04:45.947Z,11.33
2017-09-29T22:07:12.565Z,12.57
2017-09-29T22:09:39.214Z,12.07
2017-09-29T22:12:05.859Z,11.53
2017-09-29T22:14:32.496Z,12.43
2017-09-29T22:16:59.120Z,10.30
2017-09-29T22:19:25.748Z,10.67
2017-09-29T22:21:52.416Z,11.83
2017-09-29T22:24:19.042Z,10.97
2017-09-29T22:26:45.660Z,13.33
2017-09-29T22:29:12.299Z,11.53
2017-09-29T22:31:38.933Z,10.63
2017-09-29T22:34:05.551Z,10.00
2017-09-29T22:36:32.182Z,9.67
2017-09-29T22:38:58.832Z,14.43
2017-09-29T22:41:25.479Z,13.50
2017-09-29T22:43:52.101Z,12.80
2017-09-29T22:46:18.723Z,8.57
2017-09-29T22:48:45.359Z,11.67
2017-09-29T22:51:12.013Z,12.27
2017-09-29T22:53:38.630Z,8.77
2017-09-29T22:56:05.265Z,9.47
2017-09-29T22:58:31.884Z,15.97
2017-09-29T23:00:58.500Z,18.43
2017-09-29T23:03:25.136Z,12.30
2017-09-29T23:05:51.758Z,14.20
2017-09-29T23:08:18.387Z,10.47
2017-09-29T23:10:45.026Z,14.73
2017-09-29T23:13:11.647Z,11.10
2017-09-29T23:15:38.298Z,17.50
2017-09-29T23:18:04.912Z,12.20
2017-09-29T23:20:31.553Z,21.23
2017-09-29T23:22:58.190Z,20.40
2017-09-29T23:25:24.860Z,22.63
2017-09-29T23:27:51.466Z,23.30
2017-09-29T23:30:18.110Z,27.70
2017-09-29T23:32:44.768Z,21.60
2017-09-29T23:35:11.419Z,18.83
2017-09-29T23:37:38.063Z,13.83
2017-09-29T23:40:04.720Z,20.20
2017-09-29T23:42:31.370Z,22.40
2017-09-29T23:44:58.007Z,20.90
2017-09-29T23:47:24.629Z,20.43
2017-09-29T23:49:51.274Z,17.20
2017-09-29T23:52:17.906Z,21.87
2017-09-29T23:54:44.539Z,19.70
2017-09-29T23:57:11.155Z,17.87
2017-09-29T23:59:37.785Z,15.40
